ソウル/仁川 の空港の天気 - METARとTAF

仁川国際空港 ( RKSI / ICN ) - 韓国 仁川広域市 (ソウル特別市近郊)
飛行場実況気象(Metar)
観測時間07/18 21:30 KST (07/18 12:30 UTC)
風向・風速西北西 3m/s
視程7000m
天気現象
なし
気温25℃
湿度74%
気圧1011hPa
METARRKSI 181230Z 30006KT 7000 NSC 25/20 Q1011 NOSIG
過去の天気等 Google飛行場航空写真 Wunderground天気予報

過去48時間のMETAR

飛行場予報(TAF)
発表時間: 7/18 20:00 KST (7/18 11:00 UTC)
予報対象時間: 18日21時 KST ~ 20日3時 KST
風向・風速西北西 4m/s
視程7000m
少しの雲 雲底高度 300m
全天の4割程度の雲 雲底高度 910m
19日0時 KST ~ 19日1時 KST に徐々に
視程4200m
天気現象もや
19日3時 KST ~ 19日7時 KST に一時的に
視程400m
天気現象
全天の8割程度の雲 雲底高度 30m
19日9時 KST ~ 19日10時 KST に徐々に
視程7000m
天気現象運行に影響にある天気現象が終了
19日23時 KST ~ 19日24時 KST に徐々に
視程4200m
天気現象もや
TAF RKSI 181100Z 1812/1918 30007KT 7000 FEW010 SCT030 TN23/1820Z TX30/1906Z
BECMG 1815/1816 4200 BR
TEMPO 1818/1822 0400 FG BKN001
BECMG 1900/1901 7000 NSW
BECMG 1914/1915 4200 BR